Latest Weather Observations for Bulman

IDD60801

Issued at 11:01 am CST Monday 2 February 2015 (issued every 30 minutes, with the page automatically refreshed every 10 minutes)

About weather observations | Map of weather stations | Latest weather observations for NT | Other Formats
Station Details ID: 014627 Name: BULMAN Lat: -13.67 Lon: 134.34 Height: 103.4 m
Data from the previous 72 hours. | See also: Recent months for locations in Northern Territory
Date/Time
CST
Temp
°C
App
Temp
°C
Dew
Point
Rel
Hum
%
Delta-T
°C
Wind Press
QNH
hPa
Press
MSL
hPa
Rain
since 9 am
mm
Dir
 
Spd
km/h
Gust
km/h
Spd
kts
Gust
kts
02/11:00am 32.8 37.1 23.7 58 6.4 NNE 7 11 4 6 1008.5 1007.7 0.2
02/10:30am 32.7 37.0 23.3 57 6.5 NNE 6 9 3 5 1008.6 1007.8 0.2
02/10:00am 32.2 36.3 22.9 58 6.4 E 6 9 3 5 1008.7 1007.9 0.2
02/09:30am 31.6 35.7 22.9 60 6.0 WSW 6 11 3 6 1008.7 1007.9 0.0
02/09:00am 30.2 34.1 22.9 65 5.0 W 7 15 4 8 1008.5 1007.7 16.4
02/08:30am 29.1 33.7 23.8 73 3.7 NW 6 9 3 5 1008.4 1007.6 16.4
02/08:00am 27.7 32.2 22.9 75 3.3 WNW 4 7 2 4 1008.2 1007.4 16.4
02/07:30am 26.5 31.9 23.8 85 1.9 NE 2 6 1 3 1008.0 1007.2 16.4
02/07:00am 24.4 30.1 23.7 96 0.5 CALM 0 0 0 0 1007.7 1006.9 16.4
02/06:30am 23.9 29.1 22.9 94 0.7 CALM 0 0 0 0 1007.4 1006.6 16.4
02/06:00am 24.1 29.4 23.1 94 0.7 CALM 0 0 0 0 1007.0 1006.2 16.4
02/05:30am 24.3 28.9 23.1 93 0.8 NNE 4 7 2 4 1006.8 1006.0 16.4
02/05:00am 24.4 29.0 23.2 93 0.8 N 4 7 2 4 1006.8 1006.0 16.4
02/04:30am 24.5 28.6 22.9 91 1.1 NE 6 7 3 4 1007.0 1006.2 16.4
02/04:00am 25.4 29.5 23.3 88 1.4 NNW 7 11 4 6 1006.7 1005.9 16.4
02/03:30am 25.7 29.9 23.2 86 1.7 SSW 6 11 3 6 1007.2 1006.4 16.4
02/03:00am 25.1 30.5 23.3 90 1.2 CALM 0 6 0 3 1006.9 1006.1 16.4
02/02:30am 25.4 29.6 23.5 89 1.3 NW 7 9 4 5 1007.3 1006.5 16.4
02/02:00am 25.3 29.5 23.2 88 1.4 NNW 6 7 3 4 1007.6 1006.8 16.4
02/01:30am 25.6 29.4 22.7 84 2.0 NW 7 11 4 6 1007.8 1007.0 16.4
02/01:00am 25.4 29.5 22.9 86 1.7 NW 6 7 3 4 1008.2 1007.4 16.4
02/12:30am 25.7 29.4 22.6 83 2.1 NNW 7 9 4 5 1008.6 1007.8 16.4
02/12:00am 26.5 30.0 22.1 77 3.0 NNW 7 11 4 6 1008.9 1008.1 16.4
 
Date/Time
CST
Temp
°C
App
Temp
°C
Dew
Point
Rel
Hum
%
Delta-T
°C
Wind Press
QNH
hPa
Press
MSL
hPa
Rain
since 9 am
mm
Dir
 
Spd
km/h
Gust
km/h
Spd
kts
Gust
kts
01/11:30pm 27.4 30.0 21.9 72 3.7 NW 11 15 6 8 1009.1 1008.3 16.4
01/11:00pm 26.4 29.7 22.5 79 2.6 NW 9 13 5 7 1009.0 1008.2 16.4
01/10:30pm 26.1 29.8 22.6 81 2.4 N 7 11 4 6 1008.7 1007.9 16.4
01/10:00pm 26.8 29.7 21.8 74 3.4 NNE 9 11 5 6 1008.1 1007.3 16.4
01/09:30pm 27.5 31.2 22.2 73 3.6 SW 6 7 3 4 1007.1 1006.3 16.4
01/09:00pm 28.3 31.2 21.1 65 4.8 W 7 11 4 6 1007.1 1006.3 16.4
01/08:30pm 28.7 29.8 21.2 64 5.0 WNW 17 26 9 14 1006.9 1006.1 16.4
01/08:00pm 26.4 31.2 24.1 87 1.6 W 6 11 3 6 1006.5 1005.7 16.4
01/07:30pm 26.8 30.2 22.0 75 3.2 W 7 13 4 7 1006.2 1005.5 16.4
01/07:00pm 27.4 30.0 21.9 72 3.7 NNW 11 17 6 9 1005.9 1005.2 16.4
01/06:30pm 25.7 27.3 22.2 81 2.4 N 17 24 9 13 1006.4 1005.6 14.6
01/06:01pm 26.0 24.8 20.1 70 3.9 ESE 26 57 14 31 1006.7 1005.9 2.4
01/06:00pm 26.6 26.0 20.4 69 4.1 SE 24 57 13 31 1006.5 1005.7 1.8
01/05:30pm 31.3 33.6 22.0 57 6.3 W 13 24 7 13 1004.5 1003.8 0.8
01/05:00pm 29.2 29.6 21.7 64 5.1 W 22 46 12 25 1004.9 1004.2 0.8
01/04:52pm 30.5 31.8 20.1 53 6.9 S 13 46 7 25 1004.8 1004.1 0.2
01/04:30pm 36.1 38.6 18.2 34 11.8 ESE 2 7 1 4 1004.4 1003.7 0.0
01/04:00pm 37.2 38.2 17.7 31 12.7 SSE 9 15 5 8 1004.5 1003.8 0.0
01/03:30pm 37.3 38.3 16.8 29 13.3 ESE 7 13 4 7 1004.8 1004.1 0.0
01/03:00pm 36.9 37.6 18.0 33 12.4 ESE 11 19 6 10 1005.0 1004.3 0.0
01/02:30pm 37.0 39.9 19.0 34 12.0 ENE 2 7 1 4 1005.3 1004.6 0.0
01/02:00pm 37.0 39.0 19.9 36 11.5 SSE 9 20 5 11 1005.9 1005.2 0.0
01/01:30pm 36.1 38.8 20.3 39 10.7 WSW 6 11 3 6 1006.4 1005.6 0.0
01/01:00pm 35.6 37.6 19.1 38 10.9 ESE 7 11 4 6 1006.9 1006.1 0.0
01/12:30pm 35.8 39.2 22.0 44 9.5 SSE 7 15 4 8 1007.5 1006.7 0.0
01/12:00pm 35.1 38.4 21.4 45 9.4 WNW 6 9 3 5 1007.7 1006.9 0.0
01/11:30am 34.5 37.6 22.2 48 8.5 SSW 9 17 5 9 1007.9 1007.1 0.0
01/11:00am 33.7 37.2 22.1 50 7.9 SW 7 11 4 6 1008.2 1007.4 0.0
01/10:30am 33.0 37.1 23.3 56 6.7 WSW 7 13 4 7 1008.4 1007.6 0.0
01/10:00am 32.0 36.3 24.3 63 5.4 W 9 13 5 7 1008.4 1007.6 0.0
01/09:30am 31.1 35.1 23.7 64 5.2 WSW 9 13 5 7 1008.6 1007.8 0.0
01/09:00am 30.2 35.1 24.6 72 3.9 WSW 7 11 4 6 1008.6 1007.8 7.2
01/08:30am 29.0 33.6 24.8 78 3.0 W 9 15 5 8 1008.5 1007.7 7.2
01/08:00am 26.8 31.5 24.3 86 1.7 NNW 7 11 4 6 1008.4 1007.6 7.2
01/07:30am 25.5 30.1 24.1 92 1.0 NNW 7 9 4 5 1008.0 1007.2 7.2
01/07:00am 24.1 28.5 23.4 96 0.5 NNW 6 7 3 4 1008.0 1007.2 7.2
01/06:30am 24.0 28.3 23.3 96 0.5 N 6 7 3 4 1007.6 1006.8 7.2
01/06:00am 24.1 29.6 23.4 96 0.5 CALM 0 0 0 0 1007.4 1006.6 7.2
01/05:30am 24.2 28.6 23.5 96 0.5 NNW 6 7 3 4 1007.2 1006.4 7.2
01/05:00am 24.3 28.7 23.4 95 0.6 NNW 6 9 3 5 1007.0 1006.2 7.2
01/04:30am 24.5 28.9 23.5 94 0.7 NNW 6 7 3 4 1006.9 1006.1 7.2
01/04:00am 24.7 29.1 23.5 93 0.8 NNW 6 7 3 4 1006.9 1006.1 7.2
01/03:30am 24.9 29.1 23.5 92 1.0 NNW 7 9 4 5 1007.0 1006.2 7.2
01/03:00am 25.2 29.7 23.6 91 1.1 NW 6 7 3 4 1007.1 1006.3 7.2
01/02:30am 25.3 29.8 23.7 91 1.1 NNW 6 9 3 5 1007.3 1006.5 7.2
01/02:00am 25.7 30.2 23.7 89 1.4 NNW 6 9 3 5 1007.4 1006.6 7.2
01/01:30am 26.0 30.5 23.7 87 1.6 N 6 7 3 4 1007.7 1006.9 7.2
01/01:00am 26.3 31.8 24.0 87 1.6 NNW 2 7 1 4 1007.9 1007.1 7.2
01/12:30am 26.6 31.7 24.1 86 1.7 NW 4 6 2 3 1008.2 1007.4 7.2
01/12:00am 27.0 31.5 23.7 82 2.3 NNE 6 9 3 5 1008.6 1007.8 7.2
 
Date/Time
CST
Temp
°C
App
Temp
°C
Dew
Point
Rel
Hum
%
Delta-T
°C
Wind Press
QNH
hPa
Press
MSL
hPa
Rain
since 9 am
mm
Dir
 
Spd
km/h
Gust
km/h
Spd
kts
Gust
kts
31/11:30pm 27.3 32.0 24.0 82 2.3 N 6 7 3 4 1008.6 1007.8 7.2
31/11:00pm 27.9 32.4 23.9 79 2.8 NNW 7 7 4 4 1008.7 1007.9 7.2
31/10:30pm 28.5 32.8 23.6 75 3.4 NNW 7 9 4 5 1008.8 1008.0 7.2
31/10:00pm 28.7 33.0 23.6 74 3.5 NNW 7 9 4 5 1008.3 1007.5 7.2
31/09:30pm 29.1 34.3 23.5 72 3.9 N 2 7 1 4 1007.7 1006.9 7.2
31/09:00pm 29.7 33.8 23.2 68 4.5 WNW 7 11 4 6 1007.4 1006.6 7.2
31/08:30pm 29.9 34.5 24.1 71 4.0 NW 7 11 4 6 1007.2 1006.4 7.2
31/08:00pm 30.2 36.1 25.3 75 3.5 NW 4 9 2 5 1007.1 1006.3 7.2
31/07:30pm 30.9 34.2 21.9 58 6.1 WNW 7 9 4 5 1006.7 1005.9 7.2
31/07:00pm 31.2 36.6 23.3 63 5.5 CALM 0 0 0 0 1006.0 1005.3 7.2
31/06:30pm 33.0 36.4 22.7 54 7.1 WNW 9 15 5 8 1005.7 1005.0 7.2
31/06:00pm 34.2 37.5 21.9 48 8.4 WNW 7 17 4 9 1005.0 1004.3 7.2
31/05:30pm 34.9 39.6 23.9 53 7.7 WNW 6 9 3 5 1004.7 1004.0 7.2
31/05:00pm 33.0 39.0 24.2 60 6.2 CALM 0 0 0 0 1004.7 1004.0 7.2
31/04:30pm 31.0 37.3 26.0 74 3.6 SSW 4 7 2 4 1004.7 1004.0 7.2
31/04:00pm 28.3 34.4 25.1 83 2.3 W 2 6 1 3 1005.0 1004.3 7.2
31/03:30pm 27.6 31.8 23.4 78 2.9 SSW 7 11 4 6 1005.9 1005.2 6.0
31/03:00pm 28.1 30.5 23.7 77 3.0 NW 17 20 9 11 1006.0 1005.3 3.6
31/02:48pm 27.7 29.8 21.7 70 4.0 N 13 19 7 10 1006.1 1005.4 2.6
31/02:30pm 32.7 34.0 20.9 49 8.0 WNW 15 28 8 15 1005.7 1005.0 0.0
31/02:00pm 35.4 37.8 20.1 40 10.3 E 7 11 4 6 1005.8 1005.1 0.0
31/01:30pm 36.5 39.5 21.9 42 10.1 NW 9 15 5 8 1006.5 1005.7 0.0
31/01:00pm 35.6 37.4 20.3 40 10.3 NW 11 17 6 9 1007.0 1006.2 0.0
31/12:30pm 34.6 38.0 22.0 48 8.7 SW 7 13 4 7 1007.2 1006.4 0.0
31/12:00pm 33.8 37.0 21.6 49 8.3 WNW 7 13 4 7 1007.6 1006.8 0.0
31/11:30am 33.1 36.1 21.9 51 7.7 SW 9 13 5 7 1008.0 1007.2 0.0
31/11:00am 32.5 36.0 22.9 57 6.6 WNW 9 15 5 8 1008.4 1007.6 0.0
31/10:30am 31.7 34.9 22.4 58 6.4 SW 9 17 5 9 1008.4 1007.6 0.0
31/10:00am 31.1 35.0 23.0 62 5.6 WSW 7 13 4 7 1008.6 1007.8 0.0
31/09:30am 30.5 34.1 22.4 62 5.5 SW 7 13 4 7 1008.8 1008.0 0.0
31/09:00am 30.0 34.0 22.7 65 5.0 SSE 6 11 3 6 1008.7 1007.9 0.0
31/08:30am 28.2 31.2 22.0 69 4.2 SW 9 13 5 7 1008.6 1007.8 0.0
31/08:00am 27.7 31.6 22.6 74 3.5 SW 6 7 3 4 1008.5 1007.7 0.0
31/07:30am 25.7 31.1 23.2 86 1.7 CALM 0 0 0 0 1008.5 1007.7 0.0
31/07:00am 24.2 28.9 23.3 95 0.6 NNW 4 6 2 3 1008.2 1007.4 0.0
31/06:30am 23.8 29.0 22.9 95 0.6 CALM 0 0 0 0 1007.7 1006.9 0.0
31/06:00am 23.8 29.0 22.8 94 0.7 CALM 0 0 0 0 1007.4 1006.6 0.0
31/05:30am 24.1 29.3 22.9 93 0.8 CALM 0 0 0 0 1007.0 1006.2 0.0
31/05:00am 24.2 29.3 22.6 91 1.1 CALM 0 0 0 0 1007.0 1006.2 0.0
31/04:30am 24.8 29.8 22.5 87 1.6 CALM 0 0 0 0 1006.9 1006.1 0.0
31/04:00am 25.0 28.9 22.5 86 1.7 NNW 6 9 3 5 1006.9 1006.1 0.0
31/03:30am 25.2 29.1 22.5 85 1.8 NNW 6 7 3 4 1007.0 1006.2 0.0
31/03:00am 25.3 29.0 22.2 83 2.1 NW 6 9 3 5 1006.9 1006.1 0.0
31/02:30am 25.5 29.1 22.0 81 2.4 NNW 6 7 3 4 1007.1 1006.3 0.0
31/02:00am 26.0 30.8 22.1 79 2.6 CALM 0 0 0 0 1007.3 1006.5 0.0
31/01:30am 26.4 29.8 22.0 77 3.0 N 7 11 4 6 1007.7 1006.9 0.0
31/01:00am 26.8 30.0 22.4 77 3.0 NW 9 11 5 6 1008.1 1007.3 0.0
31/12:30am 27.0 30.6 22.4 76 3.1 WNW 7 13 4 7 1008.4 1007.6 0.0
31/12:00am 27.3 29.5 21.8 72 3.7 WNW 13 19 7 10 1008.9 1008.1 0.0
 
Date/Time
CST
Temp
°C
App
Temp
°C
Dew
Point
Rel
Hum
%
Delta-T
°C
Wind Press
QNH
hPa
Press
MSL
hPa
Rain
since 9 am
mm
Dir
 
Spd
km/h
Gust
km/h
Spd
kts
Gust
kts
30/11:30pm 27.0 29.5 22.4 76 3.1 WNW 13 20 7 11 1009.2 1008.4 0.0
30/11:00pm 27.1 29.8 22.9 78 2.9 NW 13 22 7 12 1009.2 1008.4 0.0
30/10:30pm 27.2 30.0 23.0 78 2.9 NW 13 19 7 10 1009.1 1008.3 0.0
30/10:00pm 27.3 30.5 23.1 78 2.9 NW 11 19 6 10 1009.2 1008.4 0.0
30/09:30pm 27.2 30.5 23.2 79 2.7 NW 11 15 6 8 1008.9 1008.1 0.0
30/09:00pm 27.2 30.4 23.0 78 2.9 NNW 11 15 6 8 1008.7 1007.9 0.0
30/08:30pm 27.6 30.3 22.8 75 3.3 NW 13 19 7 10 1008.5 1007.7 0.0
30/08:00pm 27.8 31.4 23.0 75 3.3 NNW 9 13 5 7 1008.2 1007.4 0.0
30/07:30pm 28.0 31.5 22.9 74 3.5 N 9 15 5 8 1007.5 1006.7 0.0
30/07:00pm 28.3 31.5 23.0 73 3.6 NNW 11 17 6 9 1006.9 1006.1 0.0
30/06:30pm 28.6 31.3 22.8 71 4.0 NNW 13 19 7 10 1006.5 1005.7 0.0
30/06:00pm 28.8 30.6 22.5 68 4.3 NW 17 26 9 14 1006.4 1005.6 0.0
30/05:30pm 30.7 31.8 22.0 59 5.9 NW 19 26 10 14 1005.7 1005.0 0.0
30/05:00pm 32.0 33.7 22.4 57 6.6 NW 17 22 9 12 1005.0 1004.3 0.0
30/04:30pm 32.3 33.4 21.2 52 7.5 NW 17 24 9 13 1004.9 1004.2 0.0
30/04:00pm 35.1 36.5 17.3 34 11.5 SSW 6 11 3 6 1004.2 1003.4 0.0
30/03:30pm 36.0 37.7 18.1 34 11.7 SE 6 11 3 6 1003.9 1003.1 0.0
30/03:00pm 36.4 37.7 18.5 35 11.8 WSW 9 13 5 7 1004.4 1003.6 0.0
30/02:30pm 35.8 37.1 17.5 34 11.9 E 7 15 4 8 1004.7 1004.0 0.0
30/02:00pm 35.4 36.5 16.7 33 12.0 SSE 6 13 3 7 1005.2 1004.5 0.0
30/01:30pm 35.3 35.6 18.0 36 11.3 SSE 13 19 7 10 1006.0 1005.3 0.0
30/01:00pm 35.3 37.0 18.4 37 11.1 NE 7 11 4 6 1006.6 1005.8 0.0
30/12:30pm 35.1 35.9 17.3 34 11.5 SSE 9 17 5 9 1007.0 1006.2 0.0
30/12:00pm 34.3 35.0 17.1 36 11.1 SW 9 13 5 7 1007.3 1006.5 0.0
30/11:30am 34.5 35.9 17.7 37 10.9 SW 7 11 4 6 1007.5 1006.7 0.0

Other Formats:

Comma delimited format used in spreadsheet applications
http://www.bom.gov.au/fwo/IDD60801/IDD60801.94143.axf

JavaScript Object Notation format (JSON) in row-major order
http://www.bom.gov.au/fwo/IDD60801/IDD60801.94143.json